Airfield :
LOGIN :

Register | Disclaimer

   EN    FR    IT 

 










Legend :    VFR   Marginal VFR   IFR   Intensive IFR   Very Intensive IFR
Visi :
Ceiling :
>= 8 km
>= 3000ft
5 to 8 km
1000 to 3000 ft
1500m to 5 km
500 to 1000 ft
800 to 1500m
200 to 500 ft
< 800m
< 200 ft
Symbols :   Thunderstorms  Fog  Heavy snow  Heavy precipitations  Wind > 20 kt
SIGMETs :     Misc.  Thunderstorms  Icing  Turbulence  Mountain Waves  Volcanic Ashes







- Airport Elevation : 2220 ft


LOXZ - Zeltweg AB

CURRENT METAR :
  • 270620Z VRB01KT 5000 BR FEW004ST SCT007ST BKN050SC 07/06 Q1020 TEMPO 3500 FEW003 BKN007

EXPIRED METARs :
  • 270550Z VRB02KT 5000 BR FEW002ST SCT007ST BKN050SC 07/06 Q1020 TEMPO 5000 FEW003 BKN007
  • 270520Z VRB02KT 5000 BR FEW002ST SCT007ST BKN050SC 07/06 Q1020 TEMPO 3500
  • 270450Z VRB01KT 5000 BR FEW002ST SCT007ST BKN050SC 07/06 Q1020
  • 270350Z VRB02KT 5000 BR FEW002ST SCT009ST BKN060SC 06/06 Q1019

TAF TAF LOXZ
Valid from the 27 at 06:00 until the 27 at 15:00 UTC


270515Z 2706/2715 VRB03KT 9999 FEW010 BKN060
TEMPO 2706/2708 3500 BCFG SCT003 BKN007
BECMG 2709/2711 12007KT FEW045 SCT060
No reported NOTAMs for that airfield.



MET'MAP, your aeronautical weather chart ! - Copyright ORBIFLY December 2007 - Disclaimer

ORBIFLY MET'MAP TEAM :

Programming & Development : Alexandra Zaïnal
Concept & Development : Baudouin d'Aumeries
Co-Development & Prog : Marc-Olivier Méhu
Technical & hardware support : Manuel Goepfert

Contact : metmap@orbifly.com




SOURCES & CREDITS :

   NOAA